sensor_id;sensor_type;location;lat;lon;timestamp;P1;durP1;ratioP1;P2;durP2;ratioP2
26151;SDS011;13907;53.154;8.202;2022-08-05T00:00:08;2.17;;;1.40;;
26151;SDS011;13907;53.154;8.202;2022-08-05T00:02:36;3.75;;;1.05;;
26151;SDS011;13907;53.154;8.202;2022-08-05T00:05:03;3.28;;;1.38;;
26151;SDS011;13907;53.154;8.202;2022-08-05T00:07:30;1.20;;;1.13;;
26151;SDS011;13907;53.154;8.202;2022-08-05T00:09:57;1.80;;;1.02;;
26151;SDS011;13907;53.154;8.202;2022-08-05T00:12:24;5.00;;;2.08;;
26151;SDS011;13907;53.154;8.202;2022-08-05T00:14:53;3.97;;;2.08;;
26151;SDS011;13907;53.154;8.202;2022-08-05T00:17:20;1.65;;;1.08;;
26151;SDS011;13907;53.154;8.202;2022-08-05T00:19:47;0.95;;;0.88;;
26151;SDS011;13907;53.154;8.202;2022-08-05T00:22:14;1.10;;;1.00;;
26151;SDS011;13907;53.154;8.202;2022-08-05T00:24:41;2.03;;;1.40;;
26151;SDS011;13907;53.154;8.202;2022-08-05T00:27:08;3.60;;;1.50;;
26151;SDS011;13907;53.154;8.202;2022-08-05T00:29:35;1.40;;;1.30;;
26151;SDS011;13907;53.154;8.202;2022-08-05T00:32:05;2.10;;;1.35;;
26151;SDS011;13907;53.154;8.202;2022-08-05T00:34:32;2.63;;;1.58;;
26151;SDS011;13907;53.154;8.202;2022-08-05T00:37:00;2.72;;;1.25;;
26151;SDS011;13907;53.154;8.202;2022-08-05T00:39:27;1.70;;;1.35;;
26151;SDS011;13907;53.154;8.202;2022-08-05T00:41:54;4.50;;;1.67;;
26151;SDS011;13907;53.154;8.202;2022-08-05T00:44:21;3.65;;;1.67;;
26151;SDS011;13907;53.154;8.202;2022-08-05T00:46:48;2.17;;;1.65;;
26151;SDS011;13907;53.154;8.202;2022-08-05T00:49:17;2.95;;;1.58;;
26151;SDS011;13907;53.154;8.202;2022-08-05T00:51:44;2.42;;;1.70;;
26151;SDS011;13907;53.154;8.202;2022-08-05T00:54:11;2.75;;;1.50;;
26151;SDS011;13907;53.154;8.202;2022-08-05T00:56:38;3.67;;;2.10;;
26151;SDS011;13907;53.154;8.202;2022-08-05T00:59:05;1.80;;;1.55;;
26151;SDS011;13907;53.154;8.202;2022-08-05T01:01:32;2.47;;;1.63;;
26151;SDS011;13907;53.154;8.202;2022-08-05T01:04:00;2.95;;;2.13;;
26151;SDS011;13907;53.154;8.202;2022-08-05T01:06:28;2.13;;;1.58;;
26151;SDS011;13907;53.154;8.202;2022-08-05T01:08:55;2.30;;;1.65;;
26151;SDS011;13907;53.154;8.202;2022-08-05T01:11:23;3.22;;;1.67;;
26151;SDS011;13907;53.154;8.202;2022-08-05T01:13:58;3.40;;;2.08;;
26151;SDS011;13907;53.154;8.202;2022-08-05T01:16:29;5.13;;;1.77;;
26151;SDS011;13907;53.154;8.202;2022-08-05T01:19:09;2.78;;;1.52;;
26151;SDS011;13907;53.154;8.202;2022-08-05T01:21:47;5.10;;;1.35;;
26151;SDS011;13907;53.154;8.202;2022-08-05T01:24:22;1.73;;;1.40;;
26151;SDS011;13907;53.154;8.202;2022-08-05T01:26:55;6.65;;;1.67;;
26151;SDS011;13907;53.154;8.202;2022-08-05T01:29:28;3.85;;;1.42;;
26151;SDS011;13907;53.154;8.202;2022-08-05T01:31:58;4.00;;;2.00;;
26151;SDS011;13907;53.154;8.202;2022-08-05T01:34:27;3.78;;;1.63;;
26151;SDS011;13907;53.154;8.202;2022-08-05T01:36:57;3.25;;;1.55;;
26151;SDS011;13907;53.154;8.202;2022-08-05T01:39:25;4.38;;;1.80;;
26151;SDS011;13907;53.154;8.202;2022-08-05T01:41:54;5.50;;;2.17;;
26151;SDS011;13907;53.154;8.202;2022-08-05T01:44:22;1.95;;;1.80;;
26151;SDS011;13907;53.154;8.202;2022-08-05T01:46:51;4.28;;;1.77;;
26151;SDS011;13907;53.154;8.202;2022-08-05T01:49:20;4.22;;;1.83;;
26151;SDS011;13907;53.154;8.202;2022-08-05T01:51:48;2.28;;;1.38;;
26151;SDS011;13907;53.154;8.202;2022-08-05T01:54:16;5.03;;;1.70;;
26151;SDS011;13907;53.154;8.202;2022-08-05T01:56:45;4.47;;;2.38;;
26151;SDS011;13907;53.154;8.202;2022-08-05T01:59:14;2.88;;;2.40;;
26151;SDS011;13907;53.154;8.202;2022-08-05T02:01:42;3.65;;;2.17;;
26151;SDS011;13907;53.154;8.202;2022-08-05T02:04:14;2.88;;;2.03;;
26151;SDS011;13907;53.154;8.202;2022-08-05T02:06:42;2.70;;;1.73;;
26151;SDS011;13907;53.154;8.202;2022-08-05T02:09:09;6.07;;;2.30;;
26151;SDS011;13907;53.154;8.202;2022-08-05T02:11:39;3.80;;;1.98;;
26151;SDS011;13907;53.154;8.202;2022-08-05T02:14:10;2.25;;;2.05;;
26151;SDS011;13907;53.154;8.202;2022-08-05T02:16:38;6.00;;;2.20;;
26151;SDS011;13907;53.154;8.202;2022-08-05T02:19:08;4.63;;;2.85;;
26151;SDS011;13907;53.154;8.202;2022-08-05T02:21:40;3.40;;;2.08;;
26151;SDS011;13907;53.154;8.202;2022-08-05T02:24:10;2.95;;;1.73;;
26151;SDS011;13907;53.154;8.202;2022-08-05T02:26:38;3.20;;;2.13;;
26151;SDS011;13907;53.154;8.202;2022-08-05T02:29:05;4.30;;;1.90;;
26151;SDS011;13907;53.154;8.202;2022-08-05T02:31:34;6.30;;;2.90;;
26151;SDS011;13907;53.154;8.202;2022-08-05T02:34:02;4.35;;;2.08;;
26151;SDS011;13907;53.154;8.202;2022-08-05T02:36:31;5.22;;;2.60;;
26151;SDS011;13907;53.154;8.202;2022-08-05T02:39:02;5.40;;;2.70;;
26151;SDS011;13907;53.154;8.202;2022-08-05T02:41:30;2.30;;;2.10;;
26151;SDS011;13907;53.154;8.202;2022-08-05T02:43:58;4.65;;;2.70;;
26151;SDS011;13907;53.154;8.202;2022-08-05T02:46:26;3.33;;;2.85;;
26151;SDS011;13907;53.154;8.202;2022-08-05T02:48:54;5.07;;;2.53;;
26151;SDS011;13907;53.154;8.202;2022-08-05T02:51:22;2.45;;;1.70;;
26151;SDS011;13907;53.154;8.202;2022-08-05T02:53:49;5.93;;;2.38;;
26151;SDS011;13907;53.154;8.202;2022-08-05T02:56:18;6.70;;;2.13;;
26151;SDS011;13907;53.154;8.202;2022-08-05T02:58:45;2.50;;;2.13;;
26151;SDS011;13907;53.154;8.202;2022-08-05T03:01:15;4.30;;;2.78;;
26151;SDS011;13907;53.154;8.202;2022-08-05T03:03:43;4.13;;;2.55;;
26151;SDS011;13907;53.154;8.202;2022-08-05T03:06:12;3.22;;;1.95;;
26151;SDS011;13907;53.154;8.202;2022-08-05T03:08:39;3.47;;;2.40;;
26151;SDS011;13907;53.154;8.202;2022-08-05T03:11:15;3.50;;;2.30;;
26151;SDS011;13907;53.154;8.202;2022-08-05T03:13:44;2.20;;;1.73;;
26151;SDS011;13907;53.154;8.202;2022-08-05T03:16:11;3.25;;;2.22;;
26151;SDS011;13907;53.154;8.202;2022-08-05T03:18:38;3.25;;;1.70;;
26151;SDS011;13907;53.154;8.202;2022-08-05T03:21:05;5.00;;;2.33;;
26151;SDS011;13907;53.154;8.202;2022-08-05T03:23:32;3.75;;;2.40;;
26151;SDS011;13907;53.154;8.202;2022-08-05T03:26:00;2.53;;;1.50;;
26151;SDS011;13907;53.154;8.202;2022-08-05T03:28:28;3.58;;;2.30;;
26151;SDS011;13907;53.154;8.202;2022-08-05T03:30:57;4.75;;;2.40;;
26151;SDS011;13907;53.154;8.202;2022-08-05T03:33:25;3.20;;;2.50;;
26151;SDS011;13907;53.154;8.202;2022-08-05T03:35:53;3.03;;;2.58;;
26151;SDS011;13907;53.154;8.202;2022-08-05T03:38:21;2.70;;;1.88;;
26151;SDS011;13907;53.154;8.202;2022-08-05T03:40:48;5.32;;;2.30;;
26151;SDS011;13907;53.154;8.202;2022-08-05T03:43:17;3.13;;;1.90;;
26151;SDS011;13907;53.154;8.202;2022-08-05T03:45:44;3.17;;;1.67;;
26151;SDS011;13907;53.154;8.202;2022-08-05T03:48:13;5.97;;;2.35;;
26151;SDS011;13907;53.154;8.202;2022-08-05T03:50:41;3.42;;;1.65;;
26151;SDS011;13907;53.154;8.202;2022-08-05T03:53:10;6.35;;;2.92;;
26151;SDS011;13907;53.154;8.202;2022-08-05T03:55:39;1.80;;;1.48;;
26151;SDS011;13907;53.154;8.202;2022-08-05T03:58:08;2.55;;;1.73;;
26151;SDS011;13907;53.154;8.202;2022-08-05T04:00:37;2.45;;;1.90;;
26151;SDS011;13907;53.154;8.202;2022-08-05T04:03:05;3.60;;;2.17;;
26151;SDS011;13907;53.154;8.202;2022-08-05T04:05:35;4.13;;;2.08;;
26151;SDS011;13907;53.154;8.202;2022-08-05T04:08:05;2.50;;;1.92;;
26151;SDS011;13907;53.154;8.202;2022-08-05T04:10:33;3.15;;;2.05;;
26151;SDS011;13907;53.154;8.202;2022-08-05T04:13:00;3.88;;;2.13;;
26151;SDS011;13907;53.154;8.202;2022-08-05T04:15:27;1.92;;;1.73;;
26151;SDS011;13907;53.154;8.202;2022-08-05T04:17:54;3.85;;;1.95;;
26151;SDS011;13907;53.154;8.202;2022-08-05T04:20:22;1.70;;;1.52;;
26151;SDS011;13907;53.154;8.202;2022-08-05T04:22:51;2.22;;;2.03;;
26151;SDS011;13907;53.154;8.202;2022-08-05T04:25:18;2.58;;;1.88;;
26151;SDS011;13907;53.154;8.202;2022-08-05T04:27:45;5.30;;;2.38;;
26151;SDS011;13907;53.154;8.202;2022-08-05T04:30:12;8.35;;;2.47;;
26151;SDS011;13907;53.154;8.202;2022-08-05T04:32:40;2.70;;;1.88;;
26151;SDS011;13907;53.154;8.202;2022-08-05T04:35:07;1.88;;;1.65;;
26151;SDS011;13907;53.154;8.202;2022-08-05T04:37:34;2.58;;;2.10;;
26151;SDS011;13907;53.154;8.202;2022-08-05T04:40:03;2.53;;;1.92;;
26151;SDS011;13907;53.154;8.202;2022-08-05T04:42:31;3.17;;;1.55;;
26151;SDS011;13907;53.154;8.202;2022-08-05T04:44:58;3.97;;;2.00;;
26151;SDS011;13907;53.154;8.202;2022-08-05T04:47:25;3.65;;;1.48;;
26151;SDS011;13907;53.154;8.202;2022-08-05T04:49:52;1.73;;;1.63;;
26151;SDS011;13907;53.154;8.202;2022-08-05T04:52:19;2.00;;;1.60;;
26151;SDS011;13907;53.154;8.202;2022-08-05T04:54:46;5.28;;;2.00;;
26151;SDS011;13907;53.154;8.202;2022-08-05T04:57:14;2.67;;;1.88;;
26151;SDS011;13907;53.154;8.202;2022-08-05T04:59:42;4.35;;;1.70;;
26151;SDS011;13907;53.154;8.202;2022-08-05T05:02:09;3.80;;;2.30;;
26151;SDS011;13907;53.154;8.202;2022-08-05T05:04:36;7.40;;;3.13;;
26151;SDS011;13907;53.154;8.202;2022-08-05T05:07:03;4.60;;;2.17;;
26151;SDS011;13907;53.154;8.202;2022-08-05T05:09:30;1.77;;;1.33;;
26151;SDS011;13907;53.154;8.202;2022-08-05T05:11:57;1.42;;;1.27;;
26151;SDS011;13907;53.154;8.202;2022-08-05T05:14:27;3.45;;;1.80;;
26151;SDS011;13907;53.154;8.202;2022-08-05T05:16:54;1.85;;;1.58;;
26151;SDS011;13907;53.154;8.202;2022-08-05T05:19:21;1.33;;;1.23;;
26151;SDS011;13907;53.154;8.202;2022-08-05T05:21:48;4.20;;;1.90;;
26151;SDS011;13907;53.154;8.202;2022-08-05T05:24:15;6.45;;;2.00;;
26151;SDS011;13907;53.154;8.202;2022-08-05T05:26:43;2.65;;;1.70;;
26151;SDS011;13907;53.154;8.202;2022-08-05T05:29:10;2.75;;;1.85;;
26151;SDS011;13907;53.154;8.202;2022-08-05T05:31:38;4.10;;;1.73;;
26151;SDS011;13907;53.154;8.202;2022-08-05T05:34:06;3.22;;;1.50;;
26151;SDS011;13907;53.154;8.202;2022-08-05T05:36:33;4.25;;;2.10;;
26151;SDS011;13907;53.154;8.202;2022-08-05T05:39:00;2.13;;;1.15;;
26151;SDS011;13907;53.154;8.202;2022-08-05T05:41:27;2.17;;;1.83;;
26151;SDS011;13907;53.154;8.202;2022-08-05T05:43:54;2.33;;;1.50;;
26151;SDS011;13907;53.154;8.202;2022-08-05T05:46:21;1.95;;;1.52;;
26151;SDS011;13907;53.154;8.202;2022-08-05T05:48:49;3.08;;;1.48;;
26151;SDS011;13907;53.154;8.202;2022-08-05T05:51:17;3.13;;;1.80;;
26151;SDS011;13907;53.154;8.202;2022-08-05T05:53:44;1.58;;;1.48;;
26151;SDS011;13907;53.154;8.202;2022-08-05T05:56:11;5.30;;;1.90;;
26151;SDS011;13907;53.154;8.202;2022-08-05T05:58:38;2.33;;;1.70;;
26151;SDS011;13907;53.154;8.202;2022-08-05T06:01:05;4.63;;;1.63;;
26151;SDS011;13907;53.154;8.202;2022-08-05T06:03:33;1.95;;;1.63;;
26151;SDS011;13907;53.154;8.202;2022-08-05T06:06:01;2.60;;;1.63;;
26151;SDS011;13907;53.154;8.202;2022-08-05T06:08:30;2.28;;;1.45;;
26151;SDS011;13907;53.154;8.202;2022-08-05T06:10:57;6.15;;;1.67;;
26151;SDS011;13907;53.154;8.202;2022-08-05T06:13:24;4.00;;;1.27;;
26151;SDS011;13907;53.154;8.202;2022-08-05T06:15:51;8.35;;;2.08;;
26151;SDS011;13907;53.154;8.202;2022-08-05T06:18:19;4.00;;;1.70;;
26151;SDS011;13907;53.154;8.202;2022-08-05T06:20:46;4.05;;;2.22;;
26151;SDS011;13907;53.154;8.202;2022-08-05T06:23:14;2.30;;;1.85;;
26151;SDS011;13907;53.154;8.202;2022-08-05T06:25:41;2.10;;;1.48;;
26151;SDS011;13907;53.154;8.202;2022-08-05T06:28:08;1.17;;;1.05;;
26151;SDS011;13907;53.154;8.202;2022-08-05T06:30:35;3.17;;;1.23;;
26151;SDS011;13907;53.154;8.202;2022-08-05T06:33:02;1.67;;;1.38;;
26151;SDS011;13907;53.154;8.202;2022-08-05T06:35:29;2.40;;;1.55;;
26151;SDS011;13907;53.154;8.202;2022-08-05T06:37:57;2.60;;;1.60;;
26151;SDS011;13907;53.154;8.202;2022-08-05T06:40:25;1.75;;;1.50;;
26151;SDS011;13907;53.154;8.202;2022-08-05T06:42:52;1.35;;;1.25;;
26151;SDS011;13907;53.154;8.202;2022-08-05T06:45:20;3.72;;;1.85;;
26151;SDS011;13907;53.154;8.202;2022-08-05T06:47:47;1.40;;;1.30;;
26151;SDS011;13907;53.154;8.202;2022-08-05T06:50:14;2.10;;;1.38;;
26151;SDS011;13907;53.154;8.202;2022-08-05T06:52:41;1.45;;;1.23;;
26151;SDS011;13907;53.154;8.202;2022-08-05T06:55:08;3.00;;;1.65;;
26151;SDS011;13907;53.154;8.202;2022-08-05T06:57:37;2.80;;;1.63;;
26151;SDS011;13907;53.154;8.202;2022-08-05T07:00:04;1.95;;;1.35;;
26151;SDS011;13907;53.154;8.202;2022-08-05T07:02:32;2.88;;;1.33;;
26151;SDS011;13907;53.154;8.202;2022-08-05T07:04:59;3.80;;;1.70;;
26151;SDS011;13907;53.154;8.202;2022-08-05T07:07:26;4.93;;;1.83;;
26151;SDS011;13907;53.154;8.202;2022-08-05T07:09:53;1.50;;;1.30;;
26151;SDS011;13907;53.154;8.202;2022-08-05T07:12:20;2.10;;;1.50;;
26151;SDS011;13907;53.154;8.202;2022-08-05T07:15:07;1.70;;;1.58;;
26151;SDS011;13907;53.154;8.202;2022-08-05T07:17:52;1.10;;;1.05;;
26151;SDS011;13907;53.154;8.202;2022-08-05T07:20:19;3.25;;;2.20;;
26151;SDS011;13907;53.154;8.202;2022-08-05T07:22:46;4.57;;;1.70;;
26151;SDS011;13907;53.154;8.202;2022-08-05T07:25:13;1.42;;;1.33;;
26151;SDS011;13907;53.154;8.202;2022-08-05T07:27:40;1.77;;;1.15;;
26151;SDS011;13907;53.154;8.202;2022-08-05T07:30:09;5.22;;;1.83;;
26151;SDS011;13907;53.154;8.202;2022-08-05T07:32:36;2.22;;;1.13;;
26151;SDS011;13907;53.154;8.202;2022-08-05T07:35:05;1.83;;;1.10;;
26151;SDS011;13907;53.154;8.202;2022-08-05T07:37:32;1.98;;;1.48;;
26151;SDS011;13907;53.154;8.202;2022-08-05T07:40:00;2.85;;;1.48;;
26151;SDS011;13907;53.154;8.202;2022-08-05T07:42:27;1.30;;;1.20;;
26151;SDS011;13907;53.154;8.202;2022-08-05T07:44:54;4.05;;;1.52;;
26151;SDS011;13907;53.154;8.202;2022-08-05T07:47:22;2.45;;;1.50;;
26151;SDS011;13907;53.154;8.202;2022-08-05T07:49:49;2.75;;;1.45;;
26151;SDS011;13907;53.154;8.202;2022-08-05T07:52:17;1.60;;;1.25;;
26151;SDS011;13907;53.154;8.202;2022-08-05T07:54:44;2.03;;;1.50;;
26151;SDS011;13907;53.154;8.202;2022-08-05T07:57:11;4.22;;;1.90;;
26151;SDS011;13907;53.154;8.202;2022-08-05T07:59:38;5.72;;;1.63;;
26151;SDS011;13907;53.154;8.202;2022-08-05T08:02:05;2.85;;;1.35;;
26151;SDS011;13907;53.154;8.202;2022-08-05T08:04:34;4.72;;;2.05;;
26151;SDS011;13907;53.154;8.202;2022-08-05T08:07:01;2.25;;;1.50;;
26151;SDS011;13907;53.154;8.202;2022-08-05T08:09:28;4.63;;;1.45;;
26151;SDS011;13907;53.154;8.202;2022-08-05T08:11:56;1.73;;;1.58;;
26151;SDS011;13907;53.154;8.202;2022-08-05T08:14:23;1.10;;;1.00;;
26151;SDS011;13907;53.154;8.202;2022-08-05T08:16:50;1.77;;;1.20;;
26151;SDS011;13907;53.154;8.202;2022-08-05T08:19:17;3.30;;;1.55;;
26151;SDS011;13907;53.154;8.202;2022-08-05T08:21:46;0.95;;;0.75;;
26151;SDS011;13907;53.154;8.202;2022-08-05T08:24:13;1.98;;;1.50;;
26151;SDS011;13907;53.154;8.202;2022-08-05T08:26:40;3.63;;;1.85;;
26151;SDS011;13907;53.154;8.202;2022-08-05T08:29:07;2.13;;;1.77;;
26151;SDS011;13907;53.154;8.202;2022-08-05T08:31:34;1.92;;;1.48;;
26151;SDS011;13907;53.154;8.202;2022-08-05T08:34:01;1.02;;;0.95;;
26151;SDS011;13907;53.154;8.202;2022-08-05T08:36:28;3.05;;;1.58;;
26151;SDS011;13907;53.154;8.202;2022-08-05T08:38:57;1.00;;;0.93;;
26151;SDS011;13907;53.154;8.202;2022-08-05T08:41:24;4.05;;;1.67;;
26151;SDS011;13907;53.154;8.202;2022-08-05T08:43:52;3.28;;;1.58;;
26151;SDS011;13907;53.154;8.202;2022-08-05T08:46:22;1.75;;;1.42;;
26151;SDS011;13907;53.154;8.202;2022-08-05T08:48:49;3.85;;;1.48;;
26151;SDS011;13907;53.154;8.202;2022-08-05T08:51:18;2.08;;;1.27;;
26151;SDS011;13907;53.154;8.202;2022-08-05T08:53:46;1.50;;;1.30;;
26151;SDS011;13907;53.154;8.202;2022-08-05T08:56:15;3.60;;;1.25;;
26151;SDS011;13907;53.154;8.202;2022-08-05T08:58:43;3.95;;;1.20;;
26151;SDS011;13907;53.154;8.202;2022-08-05T09:01:10;2.30;;;1.77;;
26151;SDS011;13907;53.154;8.202;2022-08-05T09:03:38;1.35;;;1.25;;
26151;SDS011;13907;53.154;8.202;2022-08-05T09:06:06;3.50;;;1.60;;
26151;SDS011;13907;53.154;8.202;2022-08-05T09:08:33;2.10;;;1.23;;
26151;SDS011;13907;53.154;8.202;2022-08-05T09:11:00;1.33;;;1.23;;
26151;SDS011;13907;53.154;8.202;2022-08-05T09:13:29;4.65;;;1.88;;
26151;SDS011;13907;53.154;8.202;2022-08-05T09:15:56;2.42;;;1.63;;
26151;SDS011;13907;53.154;8.202;2022-08-05T09:18:24;4.00;;;2.47;;
26151;SDS011;13907;53.154;8.202;2022-08-05T09:20:51;2.35;;;1.30;;
26151;SDS011;13907;53.154;8.202;2022-08-05T09:23:18;3.28;;;1.63;;
26151;SDS011;13907;53.154;8.202;2022-08-05T09:25:47;1.48;;;1.15;;
26151;SDS011;13907;53.154;8.202;2022-08-05T09:28:15;1.85;;;1.40;;
26151;SDS011;13907;53.154;8.202;2022-08-05T09:30:50;2.47;;;1.25;;
26151;SDS011;13907;53.154;8.202;2022-08-05T09:33:20;1.63;;;1.35;;
26151;SDS011;13907;53.154;8.202;2022-08-05T09:35:58;3.35;;;1.45;;
26151;SDS011;13907;53.154;8.202;2022-08-05T09:38:26;1.42;;;1.17;;
26151;SDS011;13907;53.154;8.202;2022-08-05T09:41:00;1.10;;;0.98;;
26151;SDS011;13907;53.154;8.202;2022-08-05T09:43:29;1.23;;;1.13;;
26151;SDS011;13907;53.154;8.202;2022-08-05T09:45:57;1.73;;;1.10;;
26151;SDS011;13907;53.154;8.202;2022-08-05T09:48:29;0.73;;;0.70;;
26151;SDS011;13907;53.154;8.202;2022-08-05T09:50:56;1.02;;;1.00;;
26151;SDS011;13907;53.154;8.202;2022-08-05T09:53:24;2.70;;;0.98;;
26151;SDS011;13907;53.154;8.202;2022-08-05T09:55:55;1.77;;;0.95;;
26151;SDS011;13907;53.154;8.202;2022-08-05T09:58:23;0.93;;;0.70;;
26151;SDS011;13907;53.154;8.202;2022-08-05T10:00:51;3.08;;;1.30;;
26151;SDS011;13907;53.154;8.202;2022-08-05T10:03:19;2.70;;;1.38;;
26151;SDS011;13907;53.154;8.202;2022-08-05T10:05:58;4.43;;;1.27;;
26151;SDS011;13907;53.154;8.202;2022-08-05T10:08:28;1.88;;;1.52;;
26151;SDS011;13907;53.154;8.202;2022-08-05T10:10:55;0.90;;;0.90;;
26151;SDS011;13907;53.154;8.202;2022-08-05T10:13:26;1.13;;;0.90;;
26151;SDS011;13907;53.154;8.202;2022-08-05T10:15:53;0.88;;;0.88;;
26151;SDS011;13907;53.154;8.202;2022-08-05T10:18:23;1.63;;;1.02;;
26151;SDS011;13907;53.154;8.202;2022-08-05T10:20:52;1.70;;;0.85;;
26151;SDS011;13907;53.154;8.202;2022-08-05T10:23:21;4.00;;;1.38;;
26151;SDS011;13907;53.154;8.202;2022-08-05T10:25:49;1.25;;;1.02;;
26151;SDS011;13907;53.154;8.202;2022-08-05T10:28:16;2.22;;;1.10;;
26151;SDS011;13907;53.154;8.202;2022-08-05T10:30:43;1.55;;;0.80;;
26151;SDS011;13907;53.154;8.202;2022-08-05T10:33:10;2.47;;;0.70;;
26151;SDS011;13907;53.154;8.202;2022-08-05T10:35:39;3.22;;;1.33;;
26151;SDS011;13907;53.154;8.202;2022-08-05T10:38:06;2.28;;;0.88;;
26151;SDS011;13907;53.154;8.202;2022-08-05T10:40:34;0.93;;;0.57;;
26151;SDS011;13907;53.154;8.202;2022-08-05T10:43:06;1.95;;;0.75;;
26151;SDS011;13907;53.154;8.202;2022-08-05T10:45:34;0.50;;;0.50;;
26151;SDS011;13907;53.154;8.202;2022-08-05T10:50:57;1.77;;;0.77;;
26151;SDS011;13907;53.154;8.202;2022-08-05T10:53:31;0.50;;;0.50;;
26151;SDS011;13907;53.154;8.202;2022-08-05T10:56:02;1.40;;;0.50;;
26151;SDS011;13907;53.154;8.202;2022-08-05T10:58:30;0.68;;;0.60;;
26151;SDS011;13907;53.154;8.202;2022-08-05T11:00:57;1.80;;;0.85;;
26151;SDS011;13907;53.154;8.202;2022-08-05T11:03:24;0.55;;;0.55;;
26151;SDS011;13907;53.154;8.202;2022-08-05T11:06:11;0.73;;;0.70;;
26151;SDS011;13907;53.154;8.202;2022-08-05T11:11:31;0.68;;;0.68;;
26151;SDS011;13907;53.154;8.202;2022-08-05T11:13:59;1.10;;;1.00;;
26151;SDS011;13907;53.154;8.202;2022-08-05T11:16:27;2.15;;;1.17;;
26151;SDS011;13907;53.154;8.202;2022-08-05T11:21:42;1.23;;;1.02;;
26151;SDS011;13907;53.154;8.202;2022-08-05T11:24:09;2.25;;;0.98;;
26151;SDS011;13907;53.154;8.202;2022-08-05T11:26:36;1.30;;;0.68;;
26151;SDS011;13907;53.154;8.202;2022-08-05T11:29:03;0.95;;;0.70;;
26151;SDS011;13907;53.154;8.202;2022-08-05T11:31:31;3.47;;;0.90;;
26151;SDS011;13907;53.154;8.202;2022-08-05T11:34:07;0.77;;;0.57;;
26151;SDS011;13907;53.154;8.202;2022-08-05T11:42:07;0.70;;;0.70;;
26151;SDS011;13907;53.154;8.202;2022-08-05T11:44:35;2.22;;;0.65;;
26151;SDS011;13907;53.154;8.202;2022-08-05T11:47:03;0.77;;;0.68;;
26151;SDS011;13907;53.154;8.202;2022-08-05T11:49:32;0.68;;;0.65;;
26151;SDS011;13907;53.154;8.202;2022-08-05T11:52:00;3.88;;;0.82;;
26151;SDS011;13907;53.154;8.202;2022-08-05T11:54:29;0.70;;;0.65;;
26151;SDS011;13907;53.154;8.202;2022-08-05T11:56:58;0.50;;;0.50;;
26151;SDS011;13907;53.154;8.202;2022-08-05T11:59:28;1.67;;;0.55;;
26151;SDS011;13907;53.154;8.202;2022-08-05T12:01:59;1.45;;;0.47;;
26151;SDS011;13907;53.154;8.202;2022-08-05T12:04:26;1.23;;;0.68;;
26151;SDS011;13907;53.154;8.202;2022-08-05T12:06:54;0.88;;;0.75;;
26151;SDS011;13907;53.154;8.202;2022-08-05T12:09:23;1.45;;;0.77;;
26151;SDS011;13907;53.154;8.202;2022-08-05T12:11:50;0.32;;;0.30;;
26151;SDS011;13907;53.154;8.202;2022-08-05T12:14:18;0.50;;;0.50;;
26151;SDS011;13907;53.154;8.202;2022-08-05T12:16:46;0.90;;;0.68;;
26151;SDS011;13907;53.154;8.202;2022-08-05T12:19:14;1.50;;;0.60;;
26151;SDS011;13907;53.154;8.202;2022-08-05T12:21:42;0.60;;;0.60;;
26151;SDS011;13907;53.154;8.202;2022-08-05T12:24:11;0.98;;;0.50;;
26151;SDS011;13907;53.154;8.202;2022-08-05T12:26:39;0.75;;;0.63;;
26151;SDS011;13907;53.154;8.202;2022-08-05T12:29:07;1.45;;;0.30;;
26151;SDS011;13907;53.154;8.202;2022-08-05T12:31:34;2.10;;;0.70;;
26151;SDS011;13907;53.154;8.202;2022-08-05T12:34:03;1.17;;;1.02;;
26151;SDS011;13907;53.154;8.202;2022-08-05T12:36:31;3.17;;;0.65;;
26151;SDS011;13907;53.154;8.202;2022-08-05T12:38:59;2.75;;;0.90;;
26151;SDS011;13907;53.154;8.202;2022-08-05T12:41:28;3.65;;;0.68;;
26151;SDS011;13907;53.154;8.202;2022-08-05T12:43:57;1.90;;;0.50;;
26151;SDS011;13907;53.154;8.202;2022-08-05T12:46:25;1.45;;;0.50;;
26151;SDS011;13907;53.154;8.202;2022-08-05T12:48:57;1.20;;;0.40;;
26151;SDS011;13907;53.154;8.202;2022-08-05T12:51:26;0.75;;;0.38;;
26151;SDS011;13907;53.154;8.202;2022-08-05T12:53:58;2.58;;;0.82;;
26151;SDS011;13907;53.154;8.202;2022-08-05T12:56:26;1.45;;;0.60;;
26151;SDS011;13907;53.154;8.202;2022-08-05T12:59:12;1.15;;;0.60;;
26151;SDS011;13907;53.154;8.202;2022-08-05T13:01:40;0.45;;;0.45;;
26151;SDS011;13907;53.154;8.202;2022-08-05T13:04:07;0.52;;;0.22;;
26151;SDS011;13907;53.154;8.202;2022-08-05T13:06:42;1.40;;;0.73;;
26151;SDS011;13907;53.154;8.202;2022-08-05T13:09:11;0.35;;;0.20;;
26151;SDS011;13907;53.154;8.202;2022-08-05T13:11:39;1.65;;;0.40;;
26151;SDS011;13907;53.154;8.202;2022-08-05T13:14:10;0.30;;;0.20;;
26151;SDS011;13907;53.154;8.202;2022-08-05T13:16:45;1.90;;;0.30;;
26151;SDS011;13907;53.154;8.202;2022-08-05T13:19:12;0.28;;;0.10;;
26151;SDS011;13907;53.154;8.202;2022-08-05T13:21:39;0.20;;;0.20;;
26151;SDS011;13907;53.154;8.202;2022-08-05T13:24:08;0.28;;;0.28;;
26151;SDS011;13907;53.154;8.202;2022-08-05T13:26:35;0.10;;;0.10;;
26151;SDS011;13907;53.154;8.202;2022-08-05T13:29:02;0.20;;;0.20;;
26151;SDS011;13907;53.154;8.202;2022-08-05T13:31:29;1.35;;;0.30;;
26151;SDS011;13907;53.154;8.202;2022-08-05T13:33:56;0.55;;;0.20;;
26151;SDS011;13907;53.154;8.202;2022-08-05T13:36:23;0.47;;;0.20;;
26151;SDS011;13907;53.154;8.202;2022-08-05T13:38:50;0.75;;;0.20;;
26151;SDS011;13907;53.154;8.202;2022-08-05T13:41:19;1.65;;;0.13;;
26151;SDS011;13907;53.154;8.202;2022-08-05T13:43:46;0.15;;;0.15;;
26151;SDS011;13907;53.154;8.202;2022-08-05T13:46:13;0.10;;;0.10;;
26151;SDS011;13907;53.154;8.202;2022-08-05T13:48:41;1.13;;;0.65;;
26151;SDS011;13907;53.154;8.202;2022-08-05T13:51:09;0.47;;;0.30;;
26151;SDS011;13907;53.154;8.202;2022-08-05T13:53:37;0.10;;;0.10;;
26151;SDS011;13907;53.154;8.202;2022-08-05T13:56:04;0.20;;;0.20;;
26151;SDS011;13907;53.154;8.202;2022-08-05T13:58:33;0.00;;;0.00;;
26151;SDS011;13907;53.154;8.202;2022-08-05T14:01:00;0.75;;;0.00;;
26151;SDS011;13907;53.154;8.202;2022-08-05T14:03:27;0.28;;;0.10;;
26151;SDS011;13907;53.154;8.202;2022-08-05T14:05:54;0.00;;;0.00;;
26151;SDS011;13907;53.154;8.202;2022-08-05T14:08:21;0.63;;;0.20;;
26151;SDS011;13907;53.154;8.202;2022-08-05T14:10:48;0.65;;;0.28;;
26151;SDS011;13907;53.154;8.202;2022-08-05T14:13:15;0.00;;;0.00;;
26151;SDS011;13907;53.154;8.202;2022-08-05T14:15:44;3.22;;;0.60;;
26151;SDS011;13907;53.154;8.202;2022-08-05T14:18:11;1.35;;;0.10;;
26151;SDS011;13907;53.154;8.202;2022-08-05T14:20:38;0.10;;;0.10;;
26151;SDS011;13907;53.154;8.202;2022-08-05T14:23:05;0.32;;;0.28;;
26151;SDS011;13907;53.154;8.202;2022-08-05T14:25:32;0.10;;;0.10;;
26151;SDS011;13907;53.154;8.202;2022-08-05T14:27:59;0.13;;;0.10;;
26151;SDS011;13907;53.154;8.202;2022-08-05T14:30:26;0.63;;;0.10;;
26151;SDS011;13907;53.154;8.202;2022-08-05T14:32:55;0.10;;;0.10;;
26151;SDS011;13907;53.154;8.202;2022-08-05T14:35:22;0.47;;;0.20;;
26151;SDS011;13907;53.154;8.202;2022-08-05T14:37:50;0.32;;;0.20;;
26151;SDS011;13907;53.154;8.202;2022-08-05T14:40:17;0.25;;;0.20;;
26151;SDS011;13907;53.154;8.202;2022-08-05T14:42:44;0.10;;;0.10;;
26151;SDS011;13907;53.154;8.202;2022-08-05T14:45:11;0.10;;;0.10;;
26151;SDS011;13907;53.154;8.202;2022-08-05T14:47:38;0.10;;;0.10;;
26151;SDS011;13907;53.154;8.202;2022-08-05T14:50:07;0.10;;;0.10;;
26151;SDS011;13907;53.154;8.202;2022-08-05T14:52:34;0.93;;;0.20;;
26151;SDS011;13907;53.154;8.202;2022-08-05T14:55:01;0.35;;;0.10;;
26151;SDS011;13907;53.154;8.202;2022-08-05T14:57:28;0.08;;;0.08;;
26151;SDS011;13907;53.154;8.202;2022-08-05T14:59:55;0.65;;;0.20;;
26151;SDS011;13907;53.154;8.202;2022-08-05T15:02:24;0.55;;;0.13;;
26151;SDS011;13907;53.154;8.202;2022-08-05T15:04:52;1.13;;;0.13;;
26151;SDS011;13907;53.154;8.202;2022-08-05T15:07:21;0.85;;;0.30;;